Time;durP1;ratioP1;P1;durP2;ratioP2;P2;SDS_P1;SDS_P2;PMS_P1;PMS_P2;Temp;Humidity;BMP_temperature;BMP_pressure;BME280_temperature;BME280_humidity;BME280_pressure;Samples;Min_cycle;Max_cycle;Signal;HPM_P1;HPM_P2
2021/03/16 00:01:21;;;;;;;0.20;0.10;;;;;;;5.86;96.76;100509.31;5046220;28;20825;-56
2021/03/16 00:03:47;;;;;;;0.20;0.10;;;;;;;5.85;96.94;100516.34;5044220;28;20450;-56
2021/03/16 00:06:17;;;;;;;0.20;0.10;;;;;;;5.80;97.63;100512.88;5039423;28;20501;-56
2021/03/16 00:08:44;;;;;;;0.20;0.13;;;;;;;5.72;97.04;100519.06;5040645;28;20491;-56
2021/03/16 00:11:11;;;;;;;0.20;0.10;;;;;;;5.55;98.12;100522.66;5045928;28;21019;-56
2021/03/16 00:13:37;;;;;;;0.20;0.10;;;;;;;5.49;99.34;100529.75;5045644;28;20454;-56
2021/03/16 00:16:03;;;;;;;0.20;0.10;;;;;;;5.41;98.57;100521.84;5039207;28;20447;-56
2021/03/16 00:18:31;;;;;;;0.20;0.10;;;;;;;5.50;98.75;100532.34;5039915;28;20494;-56
2021/03/16 00:20:57;;;;;;;0.20;0.10;;;;;;;5.48;99.21;100536.78;5039122;28;20950;-56
2021/03/16 00:23:23;;;;;;;0.20;0.10;;;;;;;5.55;99.03;100534.97;5039312;28;20992;-56
2021/03/16 00:25:49;;;;;;;0.30;0.10;;;;;;;5.45;98.84;100541.16;5045956;28;20456;-56
2021/03/16 00:28:15;;;;;;;0.20;0.17;;;;;;;5.56;98.99;100536.72;5045743;28;21049;-56
2021/03/16 00:30:41;;;;;;;0.20;0.10;;;;;;;5.47;99.84;100539.38;5032743;28;20794;-56
2021/03/16 00:33:07;;;;;;;0.20;0.10;;;;;;;5.43;100.00;100537.66;5046075;28;20451;-56
2021/03/16 00:35:34;;;;;;;0.20;0.20;;;;;;;5.49;99.31;100535.00;5039950;28;21038;-56
2021/03/16 00:38:00;;;;;;;0.20;0.20;;;;;;;5.53;99.91;100536.75;5047464;28;20521;-56
2021/03/16 00:40:26;;;;;;;0.20;0.17;;;;;;;5.60;99.17;100528.78;5039694;28;20462;-56
2021/03/16 00:42:52;;;;;;;0.20;0.10;;;;;;;5.61;99.63;100530.53;5038719;28;20852;-56
2021/03/16 00:45:18;;;;;;;0.20;0.10;;;;;;;5.51;98.39;100533.25;5045023;28;20808;-56
2021/03/16 00:47:44;;;;;;;0.20;0.10;;;;;;;5.49;99.53;100538.53;5045337;28;20474;-56
2021/03/16 00:50:12;;;;;;;0.20;0.10;;;;;;;5.61;99.46;100534.94;5039131;28;20533;-56
2021/03/16 00:52:38;;;;;;;0.23;0.20;;;;;;;5.56;98.20;100539.34;5039325;28;20470;-57
2021/03/16 00:55:05;;;;;;;0.20;0.10;;;;;;;5.46;98.88;100533.22;5044297;28;20447;-56
2021/03/16 00:57:32;;;;;;;0.20;0.10;;;;;;;5.84;97.93;100550.66;5023347;28;20477;-56
2021/03/16 00:59:58;;;;;;;0.20;0.10;;;;;;;5.63;98.27;100547.25;5040301;28;21006;-56
2021/03/16 01:02:31;;;;;;;0.20;0.10;;;;;;;5.65;98.20;100548.13;5038530;28;20444;-56
2021/03/16 01:04:57;;;;;;;0.20;0.10;;;;;;;5.65;97.71;100552.50;5043311;28;20459;-56
2021/03/16 01:07:23;;;;;;;0.30;0.10;;;;;;;5.87;97.30;100543.59;5045495;28;20475;-57
2021/03/16 01:09:50;;;;;;;0.30;0.10;;;;;;;5.80;97.58;100544.53;5040783;28;20482;-56
2021/03/16 01:12:16;;;;;;;0.20;0.10;;;;;;;6.05;97.56;100547.94;5038384;28;20830;-56
2021/03/16 01:14:43;;;;;;;0.30;0.10;;;;;;;6.00;95.78;100547.06;5042849;28;20450;-56
2021/03/16 01:17:09;;;;;;;0.20;0.10;;;;;;;5.98;96.61;100550.59;5045370;28;20515;-56
2021/03/16 01:19:36;;;;;;;0.30;0.10;;;;;;;6.10;96.87;100550.53;5041508;28;20451;-56
2021/03/16 01:22:02;;;;;;;0.20;0.10;;;;;;;6.00;97.14;100557.63;5038352;28;20869;-56
2021/03/16 01:24:28;;;;;;;0.20;0.10;;;;;;;6.08;96.19;100550.56;5042136;28;20452;-56
2021/03/16 01:26:54;;;;;;;0.20;0.10;;;;;;;6.08;96.33;100558.47;5036553;28;20486;-56
2021/03/16 01:29:20;;;;;;;0.20;0.10;;;;;;;6.10;96.76;100567.25;5037993;28;20585;-56
2021/03/16 01:31:46;;;;;;;0.20;0.20;;;;;;;6.10;98.69;100574.28;5035048;28;20443;-56
2021/03/16 01:34:13;;;;;;;0.20;0.10;;;;;;;6.04;98.67;100574.34;5042175;28;20887;-56
2021/03/16 01:36:39;;;;;;;0.20;0.10;;;;;;;6.25;98.17;100587.38;5044379;28;20496;-56
2021/03/16 01:39:06;;;;;;;0.20;0.10;;;;;;;6.17;98.12;100591.84;5041687;28;20471;-56
2021/03/16 01:41:32;;;;;;;0.20;0.10;;;;;;;6.23;97.07;100597.97;5045369;28;20775;-57
2021/03/16 01:43:58;;;;;;;0.20;0.10;;;;;;;6.01;98.03;100604.22;5042393;28;20455;-56
2021/03/16 01:46:24;;;;;;;0.20;0.17;;;;;;;5.82;97.03;100606.06;5037037;28;20532;-57
2021/03/16 01:48:51;;;;;;;0.20;0.10;;;;;;;5.87;97.23;100608.66;5040897;28;20553;-55
2021/03/16 01:51:18;;;;;;;0.20;0.10;;;;;;;5.78;98.90;100612.22;5044883;28;21007;-56
2021/03/16 01:53:44;;;;;;;0.20;0.10;;;;;;;5.91;97.61;100621.00;5042535;28;20450;-56
2021/03/16 01:56:24;;;;;;;0.20;0.20;;;;;;;5.83;99.07;100609.56;5032537;28;20479;-56
2021/03/16 01:58:56;;;;;;;0.20;0.10;;;;;;;5.81;97.94;100606.06;5024765;28;20447;-56
2021/03/16 02:01:22;;;;;;;0.20;0.10;;;;;;;5.82;99.42;100607.81;5026054;28;20494;-56
2021/03/16 02:03:53;;;;;;;0.20;0.10;;;;;;;5.80;98.82;100599.91;5042057;28;20506;-56
2021/03/16 02:06:51;;;;;;;0.20;0.10;;;;;;;6.15;97.70;100606.78;5047510;28;20547;-56
2021/03/16 02:09:23;;;;;;;0.20;0.10;;;;;;;6.06;97.05;100612.16;5023108;28;20915;-56
2021/03/16 02:12:05;;;;;;;0.20;0.10;;;;;;;5.98;97.22;100612.16;5042308;28;20463;-56
2021/03/16 02:14:35;;;;;;;0.20;0.10;;;;;;;6.14;96.18;100619.13;5032506;28;20500;-56
2021/03/16 02:17:11;;;;;;;0.20;0.10;;;;;;;6.09;96.00;100609.47;5041860;28;20529;-56
2021/03/16 02:19:56;;;;;;;0.20;0.10;;;;;;;6.06;97.92;100607.75;5044369;28;20825;-56
2021/03/16 02:22:28;;;;;;;0.20;0.10;;;;;;;5.81;98.75;100603.44;5041747;28;20451;-56
2021/03/16 02:25:02;;;;;;;0.20;0.20;;;;;;;5.83;97.22;100599.91;5041522;28;20444;-56
2021/03/16 02:27:40;;;;;;;0.30;0.10;;;;;;;5.85;96.91;100608.66;5039954;28;20467;-57
2021/03/16 02:30:09;;;;;;;0.20;0.13;;;;;;;5.86;97.13;100612.19;5042888;28;20493;-56
2021/03/16 02:32:37;;;;;;;0.20;0.10;;;;;;;6.16;97.58;100601.50;5044495;28;20450;-57
2021/03/16 02:35:05;;;;;;;0.20;0.10;;;;;;;6.06;96.96;100604.22;5041274;28;20541;-56
2021/03/16 02:37:37;;;;;;;0.20;0.20;;;;;;;5.89;97.01;100615.72;5050502;28;20478;-56
2021/03/16 02:40:06;;;;;;;0.20;0.10;;;;;;;5.90;97.68;100619.25;5041541;28;20822;-56
2021/03/16 02:42:34;;;;;;;0.20;0.10;;;;;;;5.96;96.85;100616.56;5043455;28;20942;-56
2021/03/16 02:45:05;;;;;;;0.20;0.10;;;;;;;6.00;97.27;100622.72;5047940;28;20820;-56
2021/03/16 02:47:31;;;;;;;0.30;0.20;;;;;;;5.90;97.17;100624.53;5046152;28;20523;-56
2021/03/16 02:49:58;;;;;;;0.20;0.20;;;;;;;6.02;96.44;100623.56;5040880;28;20569;-56
2021/03/16 02:52:25;;;;;;;0.20;0.10;;;;;;;5.98;97.08;100630.63;5042344;28;20447;-56
2021/03/16 02:54:51;;;;;;;0.20;0.20;;;;;;;6.02;97.58;100635.00;5047836;28;20474;-56
2021/03/16 02:57:19;;;;;;;0.20;0.10;;;;;;;5.85;98.20;100631.53;5025622;28;20477;-56
2021/03/16 02:59:48;;;;;;;0.20;0.10;;;;;;;5.75;99.01;100629.81;5046594;28;20448;-56
2021/03/16 03:02:16;;;;;;;0.20;0.10;;;;;;;5.86;99.37;100631.53;5047143;28;20454;-56
2021/03/16 03:04:46;;;;;;;0.20;0.20;;;;;;;6.00;98.65;100646.47;5040455;28;20450;-56
2021/03/16 03:07:13;;;;;;;0.20;0.20;;;;;;;5.76;100.00;100644.78;5040417;28;20878;-56
2021/03/16 03:09:39;;;;;;;0.20;0.10;;;;;;;5.75;100.00;100650.91;5047135;28;20565;-56
2021/03/16 03:12:07;;;;;;;0.20;0.10;;;;;;;5.85;100.00;100660.56;5047922;28;20446;-56
2021/03/16 03:14:37;;;;;;;0.20;0.10;;;;;;;5.76;100.00;100657.97;5039622;28;20489;-56
2021/03/16 03:17:07;;;;;;;0.20;0.20;;;;;;;5.62;100.00;100664.16;5040411;28;20484;-56
2021/03/16 03:19:34;;;;;;;0.30;0.10;;;;;;;5.54;100.00;100663.28;5046015;28;20957;-56
2021/03/16 03:22:10;;;;;;;0.30;0.20;;;;;;;5.65;100.00;100668.53;5047432;28;20516;-56
2021/03/16 03:24:44;;;;;;;0.20;0.10;;;;;;;5.66;100.00;100675.56;5043884;28;20446;-56
2021/03/16 03:27:30;;;;;;;0.20;0.20;;;;;;;5.58;100.00;100672.94;5040216;28;20473;-56
2021/03/16 03:29:58;;;;;;;0.20;0.13;;;;;;;5.85;100.00;100682.53;5040379;28;20537;-56
2021/03/16 03:32:28;;;;;;;0.20;0.10;;;;;;;5.31;100.00;100684.41;5042195;28;20501;-56
2021/03/16 03:34:57;;;;;;;0.20;0.10;;;;;;;5.41;100.00;100684.41;5040566;28;20475;-56
2021/03/16 03:37:24;;;;;;;0.20;0.10;;;;;;;5.41;100.00;100689.66;5049361;28;20467;-56
2021/03/16 03:39:52;;;;;;;0.20;0.10;;;;;;;5.31;100.00;100680.88;5039601;28;20545;-56
2021/03/16 03:42:19;;;;;;;0.20;0.10;;;;;;;5.39;100.00;100681.75;5044554;28;20502;-56
2021/03/16 03:44:51;;;;;;;0.20;0.10;;;;;;;5.29;100.00;100680.88;5046808;28;20479;-56
2021/03/16 03:47:19;;;;;;;0.20;0.20;;;;;;;5.23;100.00;100682.66;5043565;28;20489;-56
2021/03/16 03:49:46;;;;;;;0.20;0.10;;;;;;;5.69;100.00;100688.72;5039594;28;20730;-56
2021/03/16 03:52:14;;;;;;;0.20;0.10;;;;;;;5.17;100.00;100680.88;5042627;28;20464;-56
2021/03/16 03:54:42;;;;;;;0.20;0.10;;;;;;;5.12;100.00;100672.13;5046517;28;20463;-56
2021/03/16 03:57:10;;;;;;;0.20;0.10;;;;;;;5.22;100.00;100680.91;5026346;28;21028;-56
2021/03/16 03:59:40;;;;;;;0.20;0.10;;;;;;;5.11;100.00;100686.19;5044742;28;20452;-56
2021/03/16 04:02:06;;;;;;;0.20;0.10;;;;;;;5.07;100.00;100679.13;5044951;28;20450;-56
2021/03/16 04:04:36;;;;;;;0.20;0.20;;;;;;;5.08;100.00;100682.66;5039346;28;20451;-56
2021/03/16 04:07:02;;;;;;;0.20;0.10;;;;;;;5.13;100.00;100694.94;5040701;28;20989;-55
2021/03/16 04:09:28;;;;;;;0.30;0.10;;;;;;;4.99;100.00;100697.59;5046450;28;20491;-54
2021/03/16 04:11:55;;;;;;;0.20;0.10;;;;;;;4.91;100.00;100696.69;5045637;28;20513;-55
2021/03/16 04:14:21;;;;;;;0.20;0.10;;;;;;;4.93;100.00;100702.81;5039474;28;20454;-55
2021/03/16 04:16:48;;;;;;;0.20;0.10;;;;;;;4.96;100.00;100709.88;5040153;28;20471;-55
2021/03/16 04:19:14;;;;;;;0.20;0.10;;;;;;;4.99;100.00;100709.88;5046109;28;20444;-55
2021/03/16 04:21:42;;;;;;;0.20;0.20;;;;;;;5.04;100.00;100716.88;5045978;28;20461;-55
2021/03/16 04:24:08;;;;;;;0.20;0.10;;;;;;;4.81;100.00;100705.47;5039139;28;20936;-55
2021/03/16 04:26:34;;;;;;;0.20;0.20;;;;;;;4.88;100.00;100707.22;5038761;28;20476;-55
2021/03/16 04:29:01;;;;;;;0.20;0.10;;;;;;;4.86;100.00;100716.00;5046314;28;20484;-55
2021/03/16 04:31:27;;;;;;;0.20;0.10;;;;;;;5.00;100.00;100717.78;5032937;28;20476;-55
2021/03/16 04:33:53;;;;;;;0.20;0.10;;;;;;;5.04;100.00;100724.78;5045910;28;20502;-55
2021/03/16 04:36:19;;;;;;;0.20;0.20;;;;;;;5.45;100.00;100728.31;5041467;28;20997;-55
2021/03/16 04:38:45;;;;;;;0.20;0.10;;;;;;;5.44;100.00;100724.81;5045161;28;20870;-55
2021/03/16 04:41:11;;;;;;;0.20;0.10;;;;;;;5.39;100.00;100721.31;5045851;28;20451;-55
2021/03/16 04:43:42;;;;;;;0.20;0.10;;;;;;;5.62;100.00;100731.84;5040064;28;20855;-55
2021/03/16 04:46:08;;;;;;;0.20;0.20;;;;;;;5.84;100.00;100725.63;5038705;28;20471;-55
2021/03/16 04:48:38;;;;;;;0.20;0.20;;;;;;;5.58;100.00;100725.66;5044002;28;20491;-54
2021/03/16 04:51:05;;;;;;;0.20;0.10;;;;;;;5.78;100.00;100727.41;5045999;28;20446;-55
2021/03/16 04:53:31;;;;;;;0.20;0.10;;;;;;;5.53;100.00;100735.34;5040735;28;20520;-55
2021/03/16 04:55:57;;;;;;;0.20;0.10;;;;;;;5.84;100.00;100740.56;5039023;28;20538;-55
2021/03/16 04:58:36;;;;;;;0.20;0.10;;;;;;;5.73;100.00;100747.63;5022581;28;20803;-55
2021/03/16 05:01:03;;;;;;;0.20;0.20;;;;;;;5.82;100.00;100737.06;5045488;28;20522;-55
2021/03/16 05:03:30;;;;;;;0.20;0.10;;;;;;;5.86;99.64;100736.16;5042183;28;20455;-55
2021/03/16 05:05:56;;;;;;;0.20;0.20;;;;;;;5.90;99.34;100753.81;5038330;28;20447;-55
2021/03/16 05:08:23;;;;;;;0.20;0.17;;;;;;;5.88;100.00;100751.09;5042375;28;20487;-55
2021/03/16 05:10:49;;;;;;;0.20;0.20;;;;;;;5.57;100.00;100754.69;5045488;28;20509;-55
2021/03/16 05:13:16;;;;;;;0.20;0.10;;;;;;;5.60;100.00;100762.56;5042636;28;20890;-55
2021/03/16 05:15:42;;;;;;;0.20;0.10;;;;;;;5.46;100.00;100761.69;5038464;28;20470;-55
2021/03/16 05:18:08;;;;;;;0.20;0.10;;;;;;;5.78;99.06;100756.44;5042276;28;20475;-55
2021/03/16 05:20:34;;;;;;;0.20;0.10;;;;;;;5.48;99.97;100768.75;5045544;28;20800;-55
2021/03/16 05:23:00;;;;;;;0.20;0.10;;;;;;;5.63;99.09;100766.13;5041680;28;20446;-55
2021/03/16 05:25:26;;;;;;;0.20;0.10;;;;;;;5.67;99.65;100769.63;5038309;28;20979;-54
2021/03/16 05:27:52;;;;;;;0.20;0.10;;;;;;;5.77;99.39;100773.13;5031589;28;20529;-55
2021/03/16 05:30:19;;;;;;;0.20;0.10;;;;;;;5.54;100.00;100776.66;5037227;28;21022;-55
2021/03/16 05:32:45;;;;;;;0.20;0.10;;;;;;;5.77;98.81;100786.31;5042838;28;20861;-55
2021/03/16 05:35:12;;;;;;;0.20;0.20;;;;;;;5.57;99.68;100789.84;5038416;28;20516;-55
2021/03/16 05:37:38;;;;;;;0.20;0.10;;;;;;;5.62;99.99;100790.72;5049890;28;20995;-55
2021/03/16 05:40:05;;;;;;;0.20;0.20;;;;;;;5.81;100.00;100794.22;5042382;28;20508;-55
2021/03/16 05:42:31;;;;;;;0.20;0.10;;;;;;;5.76;100.00;100803.03;5043038;28;20868;-55
2021/03/16 05:44:58;;;;;;;0.20;0.10;;;;;;;5.65;100.00;100809.19;5027652;28;20953;-54
2021/03/16 05:47:26;;;;;;;0.20;0.10;;;;;;;5.57;100.00;100805.66;5046855;28;20474;-55
2021/03/16 05:49:56;;;;;;;0.20;0.10;;;;;;;5.65;100.00;100810.94;5042358;28;20497;-55
2021/03/16 05:52:22;;;;;;;0.20;0.10;;;;;;;5.79;100.00;100805.66;5043025;28;20452;-55
2021/03/16 05:54:53;;;;;;;0.20;0.10;;;;;;;5.54;100.00;100805.66;5044385;28;20946;-55
2021/03/16 05:57:20;;;;;;;0.20;0.10;;;;;;;5.32;100.00;100802.13;5026201;28;20994;-55
2021/03/16 05:59:49;;;;;;;0.20;0.10;;;;;;;5.38;100.00;100803.03;5048563;28;20459;-55
2021/03/16 06:02:16;;;;;;;0.20;0.20;;;;;;;5.24;100.00;100803.88;5048865;28;20512;-55
2021/03/16 06:04:46;;;;;;;0.20;0.10;;;;;;;5.24;100.00;100803.00;5042699;28;20457;-55
2021/03/16 06:07:13;;;;;;;0.20;0.10;;;;;;;5.27;100.00;100805.63;5041765;28;20528;-55
2021/03/16 06:09:41;;;;;;;0.20;0.10;;;;;;;5.46;100.00;100806.53;5047364;28;20526;-55
2021/03/16 06:12:08;;;;;;;0.20;0.10;;;;;;;5.48;100.00;100815.31;5048917;28;20508;-55
2021/03/16 06:14:48;;;;;;;0.20;0.10;;;;;;;5.81;100.00;100811.81;5045247;28;20891;-55
2021/03/16 06:17:15;;;;;;;0.20;0.10;;;;;;;5.63;100.00;100816.22;5041497;28;20848;-55
2021/03/16 06:19:42;;;;;;;0.20;0.10;;;;;;;5.89;100.00;100817.94;5044905;28;20482;-55
2021/03/16 06:22:08;;;;;;;0.20;0.10;;;;;;;5.90;100.00;100818.00;5049029;28;20455;-55
2021/03/16 06:24:44;;;;;;;0.20;0.10;;;;;;;5.84;100.00;100827.63;5045628;28;20451;-55
2021/03/16 06:27:24;;;;;;;0.20;0.13;;;;;;;5.76;100.00;100832.91;5041490;28;20519;-55
2021/03/16 06:29:51;;;;;;;0.20;0.20;;;;;;;6.00;100.00;100831.16;5041156;28;20498;-55
2021/03/16 06:32:17;;;;;;;0.20;0.10;;;;;;;6.07;100.00;100836.44;5042376;28;20508;-55
2021/03/16 06:34:44;;;;;;;0.20;0.10;;;;;;;5.79;100.00;100838.19;5041780;28;20455;-55
2021/03/16 06:37:11;;;;;;;0.20;0.10;;;;;;;5.81;100.00;100838.19;5050634;28;20532;-55
2021/03/16 06:39:44;;;;;;;0.20;0.10;;;;;;;5.80;100.00;100847.84;5041239;28;20451;-55
2021/03/16 06:42:26;;;;;;;0.20;0.20;;;;;;;5.83;100.00;100846.97;5046284;28;20814;-55
2021/03/16 06:45:28;;;;;;;0.20;0.10;;;;;;;5.78;100.00;100854.91;5047837;28;20940;-54
2021/03/16 06:47:54;;;;;;;0.20;0.10;;;;;;;5.91;100.00;100856.69;5047077;28;20474;-55
2021/03/16 06:50:28;;;;;;;0.20;0.10;;;;;;;6.23;100.00;100855.75;5042979;28;21115;-55
2021/03/16 06:52:54;;;;;;;0.20;0.10;;;;;;;6.15;100.00;100861.03;5041082;28;20446;-55
2021/03/16 06:55:20;;;;;;;0.20;0.10;;;;;;;6.39;99.45;100860.13;5044788;28;20531;-55
2021/03/16 06:57:47;;;;;;;0.20;0.10;;;;;;;6.44;100.00;100870.66;5025085;28;20468;-55
2021/03/16 07:00:16;;;;;;;0.20;0.10;;;;;;;6.42;98.41;100861.88;5044824;28;20493;-55
2021/03/16 07:02:43;;;;;;;0.20;0.10;;;;;;;6.67;96.86;100870.59;5040808;28;21082;-55
2021/03/16 07:05:10;;;;;;;0.30;0.20;;;;;;;6.78;96.90;100874.09;5043395;28;20949;-55
2021/03/16 07:07:36;;;;;;;0.20;0.10;;;;;;;6.76;96.17;100879.38;5047298;28;20468;-55
2021/03/16 07:10:05;;;;;;;0.20;0.20;;;;;;;6.51;96.47;100886.50;5044893;28;20536;-55
2021/03/16 07:12:35;;;;;;;0.20;0.10;;;;;;;6.56;96.12;100875.91;5040605;28;20542;-55
2021/03/16 07:15:05;;;;;;;0.20;0.10;;;;;;;6.46;98.57;100875.09;5042376;28;20444;-55
2021/03/16 07:17:32;;;;;;;0.20;0.17;;;;;;;6.83;95.55;100886.38;5046959;28;20475;-55
2021/03/16 07:20:07;;;;;;;0.30;0.10;;;;;;;6.70;96.27;100886.44;5046632;28;20505;-55
2021/03/16 07:22:45;;;;;;;0.20;0.10;;;;;;;6.87;94.42;100897.84;5046796;28;20471;-55
2021/03/16 07:25:12;;;;;;;0.30;0.20;;;;;;;7.06;94.13;100888.94;5047405;28;20447;-55
2021/03/16 07:27:40;;;;;;;0.20;0.10;;;;;;;6.94;96.21;100894.28;5042718;28;20474;-55
2021/03/16 07:30:08;;;;;;;0.20;0.10;;;;;;;6.78;94.79;100896.09;5040123;28;20577;-55
2021/03/16 07:32:34;;;;;;;0.20;0.20;;;;;;;6.77;94.91;100894.34;5043971;28;20461;-55
2021/03/16 07:35:01;;;;;;;0.30;0.20;;;;;;;6.80;94.34;100901.38;5047255;28;20462;-55
2021/03/16 07:37:29;;;;;;;0.20;0.10;;;;;;;7.15;94.06;100905.66;5042879;28;20474;-55
2021/03/16 07:40:00;;;;;;;0.20;0.10;;;;;;;7.12;93.44;100904.75;5035294;28;20940;-55
2021/03/16 07:42:28;;;;;;;0.40;0.40;;;;;;;7.07;95.58;100903.03;5033989;28;20510;-55
2021/03/16 07:44:55;;;;;;;0.30;0.10;;;;;;;7.07;95.65;100906.56;5046925;28;20447;-55
2021/03/16 07:47:32;;;;;;;0.27;0.10;;;;;;;6.95;95.10;100913.66;5044744;28;20479;-55
2021/03/16 07:50:09;;;;;;;0.30;0.20;;;;;;;7.17;95.24;100912.69;5039840;28;20490;-55
2021/03/16 07:52:46;;;;;;;0.20;0.20;;;;;;;7.28;94.02;100918.81;5040196;28;20458;-55
2021/03/16 07:55:27;;;;;;;0.30;0.20;;;;;;;7.54;92.58;100917.75;5033824;28;20815;-54
2021/03/16 07:57:53;;;;;;;0.20;0.20;;;;;;;7.38;92.08;100930.19;5024657;28;20468;-55
2021/03/16 08:00:29;;;;;;;0.23;0.20;;;;;;;7.26;92.34;100927.63;5044317;28;20443;-55
2021/03/16 08:02:58;;;;;;;0.27;0.10;;;;;;;7.43;91.97;100924.03;5039810;28;20446;-55
2021/03/16 08:05:25;;;;;;;0.20;0.17;;;;;;;7.44;92.07;100938.13;5039971;28;20459;-55
2021/03/16 08:07:51;;;;;;;0.20;0.20;;;;;;;7.47;91.47;100934.56;5046397;28;20881;-55
2021/03/16 08:10:31;;;;;;;0.23;0.20;;;;;;;7.30;90.55;100932.91;5046276;28;20493;-55
2021/03/16 08:12:59;;;;;;;0.20;0.10;;;;;;;7.26;90.47;100931.13;5044130;28;20941;-55
2021/03/16 08:15:25;;;;;;;0.30;0.20;;;;;;;7.36;89.94;100932.84;5046238;28;20504;-55
2021/03/16 08:17:58;;;;;;;0.20;0.20;;;;;;;7.39;91.54;100939.88;5042391;28;20466;-55
2021/03/16 08:20:26;;;;;;;0.20;0.10;;;;;;;7.48;89.97;100934.56;5038165;28;20454;-55
2021/03/16 08:23:03;;;;;;;0.30;0.20;;;;;;;7.66;90.80;100934.44;5042943;28;20463;-55
2021/03/16 08:25:31;;;;;;;0.20;0.10;;;;;;;7.53;89.38;100929.22;5046111;28;20945;-55
2021/03/16 08:27:59;;;;;;;0.20;0.20;;;;;;;7.80;89.93;100930.81;5044269;28;20520;-55
2021/03/16 08:30:28;;;;;;;0.20;0.20;;;;;;;7.73;88.31;100938.81;5033889;28;20896;-55
2021/03/16 08:32:54;;;;;;;0.20;0.20;;;;;;;7.76;89.76;100931.75;5045139;28;20458;-55
2021/03/16 08:35:21;;;;;;;0.30;0.20;;;;;;;7.73;87.99;100930.88;5039570;28;20455;-55
2021/03/16 08:37:51;;;;;;;0.30;0.10;;;;;;;7.83;87.82;100931.72;5047890;28;20528;-56
2021/03/16 08:40:23;;;;;;;0.30;0.10;;;;;;;7.93;89.03;100925.44;5038835;28;20896;-56
2021/03/16 08:42:50;;;;;;;0.20;0.20;;;;;;;8.00;89.17;100932.44;5039253;28;20447;-56
2021/03/16 08:45:30;;;;;;;0.20;0.10;;;;;;;7.96;89.55;100935.16;5045223;28;20451;-56
2021/03/16 08:47:56;;;;;;;0.30;0.20;;;;;;;7.74;89.03;100937.06;5045789;28;20582;-55
2021/03/16 08:50:25;;;;;;;0.27;0.20;;;;;;;7.86;85.23;100944.03;5041884;28;20522;-56
2021/03/16 08:52:51;;;;;;;0.30;0.20;;;;;;;8.01;84.45;100941.28;5039138;28;20450;-55
2021/03/16 08:55:24;;;;;;;0.23;0.10;;;;;;;7.91;84.40;100945.75;5042432;28;20452;-56
2021/03/16 08:57:52;;;;;;;0.20;0.20;;;;;;;7.90;84.90;100951.94;5023879;28;20467;-55
2021/03/16 09:00:30;;;;;;;0.20;0.10;;;;;;;7.68;85.99;100953.84;5043264;28;20474;-56
2021/03/16 09:02:56;;;;;;;0.30;0.20;;;;;;;7.42;85.83;100964.59;5038534;28;20446;-55
2021/03/16 09:05:27;;;;;;;0.30;0.20;;;;;;;7.29;86.20;100967.28;5039470;28;20947;-56
2021/03/16 09:07:59;;;;;;;0.30;0.20;;;;;;;7.27;89.84;100966.41;5038880;28;20847;-55
2021/03/16 09:10:27;;;;;;;0.30;0.20;;;;;;;7.34;89.84;100971.66;5038257;28;20494;-55
2021/03/16 09:12:53;;;;;;;0.20;0.10;;;;;;;7.12;88.85;100968.22;5044491;28;20462;-55
2021/03/16 09:15:34;;;;;;;0.20;0.20;;;;;;;7.20;89.31;100954.09;5046166;28;20470;-55
2021/03/16 09:18:04;;;;;;;0.30;0.20;;;;;;;7.18;90.25;100964.69;5042041;28;20560;-55
2021/03/16 09:20:34;;;;;;;0.20;0.10;;;;;;;7.51;89.30;100957.47;5038749;28;20447;-55
2021/03/16 09:23:08;;;;;;;0.30;0.20;;;;;;;7.53;90.20;100958.34;5041144;28;20893;-55
2021/03/16 09:25:37;;;;;;;0.20;0.20;;;;;;;7.67;88.16;100959.13;5045094;28;20448;-55
2021/03/16 09:28:06;;;;;;;0.20;0.10;;;;;;;7.69;87.46;100954.72;5044017;28;20475;-55
2021/03/16 09:30:32;;;;;;;0.30;0.10;;;;;;;7.92;86.93;100957.22;5032560;28;20521;-55
2021/03/16 09:32:59;;;;;;;0.30;0.10;;;;;;;8.21;86.48;100960.50;5044612;28;20446;-55
2021/03/16 09:35:26;;;;;;;0.30;0.10;;;;;;;8.52;85.01;100960.31;5038731;28;20526;-55
2021/03/16 09:37:53;;;;;;;0.30;0.20;;;;;;;8.87;82.23;100952.84;5047488;28;20470;-55
2021/03/16 09:40:36;;;;;;;0.30;0.20;;;;;;;8.85;78.80;100962.59;5038325;28;20443;-55
2021/03/16 09:43:15;;;;;;;0.30;0.20;;;;;;;8.77;79.83;100958.25;5038038;28;20447;-55
2021/03/16 09:45:51;;;;;;;0.30;0.20;;;;;;;9.07;79.43;100963.25;5041325;28;20463;-55
2021/03/16 09:48:19;;;;;;;0.30;0.20;;;;;;;9.42;77.30;100959.28;5044766;28;20477;-55
2021/03/16 09:50:46;;;;;;;0.30;0.20;;;;;;;9.14;75.89;100964.91;5043502;28;20486;-55
2021/03/16 09:53:19;;;;;;;0.30;0.20;;;;;;;8.96;75.99;100957.19;5038284;28;20450;-55
2021/03/16 09:56:00;;;;;;;0.30;0.20;;;;;;;9.14;76.83;100961.38;5038290;28;20447;-55
2021/03/16 09:58:29;;;;;;;0.30;0.20;;;;;;;9.11;76.63;100954.34;5029572;28;20508;-55
2021/03/16 10:01:01;;;;;;;0.30;0.17;;;;;;;8.73;77.60;100946.81;5037918;28;20933;-55
2021/03/16 10:03:28;;;;;;;0.30;0.20;;;;;;;8.77;78.28;100951.22;5041836;28;20563;-55
2021/03/16 10:06:03;;;;;;;0.30;0.20;;;;;;;9.12;75.86;100950.81;5044929;28;20526;-55
2021/03/16 10:08:29;;;;;;;0.30;0.20;;;;;;;8.89;75.84;100958.13;5042129;28;20512;-55
2021/03/16 10:10:55;;;;;;;0.30;0.20;;;;;;;8.95;76.35;100949.25;5037847;28;20447;-55
2021/03/16 10:13:39;;;;;;;0.30;0.20;;;;;;;8.86;77.14;100944.91;5040393;28;20455;-55
2021/03/16 10:16:09;;;;;;;0.30;0.20;;;;;;;8.68;75.28;100942.47;5037920;28;20454;-55
2021/03/16 10:18:38;;;;;;;0.30;0.20;;;;;;;8.72;76.56;100947.72;5037935;28;20463;-55
2021/03/16 10:21:04;;;;;;;0.30;0.20;;;;;;;8.84;74.23;100946.72;5043522;28;20968;-55
2021/03/16 10:23:31;;;;;;;0.30;0.20;;;;;;;8.97;73.43;100953.63;5044842;28;20497;-55
2021/03/16 10:26:06;;;;;;;0.30;0.20;;;;;;;8.87;74.93;100946.66;5042871;28;20481;-55
2021/03/16 10:28:38;;;;;;;0.30;0.20;;;;;;;8.98;74.48;100951.88;5044115;28;20508;-55
2021/03/16 10:31:18;;;;;;;0.30;0.20;;;;;;;9.01;72.28;100954.47;5034925;28;20447;-55
2021/03/16 10:33:49;;;;;;;0.30;0.20;;;;;;;8.61;75.29;100957.53;5047954;28;20447;-55
2021/03/16 10:36:16;;;;;;;0.30;0.20;;;;;;;8.65;74.08;100961.06;5043736;28;20443;-55
2021/03/16 10:38:43;;;;;;;0.30;0.20;;;;;;;8.89;70.76;100955.47;5028575;28;20455;-55
2021/03/16 10:41:09;;;;;;;0.30;0.10;;;;;;;8.76;67.52;100953.84;5041316;28;20448;-55
2021/03/16 10:43:35;;;;;;;0.30;0.20;;;;;;;9.13;68.93;100941.94;5047685;28;20455;-55
2021/03/16 10:46:02;;;;;;;0.30;0.20;;;;;;;9.20;68.80;100940.13;5047683;28;20451;-56
2021/03/16 10:48:32;;;;;;;0.30;0.20;;;;;;;9.44;69.05;100945.06;5041926;28;20566;-55
2021/03/16 10:50:59;;;;;;;0.30;0.20;;;;;;;9.46;69.40;100943.31;5040805;28;20819;-55
2021/03/16 10:53:27;;;;;;;0.30;0.20;;;;;;;9.53;68.45;100944.09;5045938;28;20455;-55
2021/03/16 10:56:00;;;;;;;0.30;0.10;;;;;;;9.30;68.54;100943.50;5046436;28;20794;-55
2021/03/16 10:58:27;;;;;;;0.30;0.20;;;;;;;9.12;70.84;100937.53;5032262;28;21011;-55
2021/03/16 11:00:53;;;;;;;0.30;0.20;;;;;;;9.10;71.18;100934.03;5040708;28;20869;-55
2021/03/16 11:03:35;;;;;;;0.30;0.20;;;;;;;9.06;71.38;100937.63;5043259;28;20451;-55
2021/03/16 11:06:02;;;;;;;0.30;0.20;;;;;;;9.13;70.88;100943.72;5047645;28;20448;-55
2021/03/16 11:08:30;;;;;;;0.50;0.50;;;;;;;9.19;69.56;100936.59;5046152;28;20451;-55
2021/03/16 11:10:56;;;;;;;0.30;0.20;;;;;;;9.03;71.18;100942.06;5040762;28;20569;-55
2021/03/16 11:13:22;;;;;;;0.30;0.20;;;;;;;9.08;71.81;100934.97;5042477;28;20447;-55
2021/03/16 11:15:48;;;;;;;0.30;0.20;;;;;;;9.05;72.89;100930.56;5047544;28;20447;-55
2021/03/16 11:18:17;;;;;;;0.30;0.20;;;;;;;8.86;72.93;100935.19;5046366;28;20955;-55
2021/03/16 11:20:43;;;;;;;0.30;0.20;;;;;;;8.86;73.43;100934.31;5040412;28;20453;-55
2021/03/16 11:23:10;;;;;;;0.30;0.20;;;;;;;8.94;73.79;100937.78;5041614;28;20945;-55
2021/03/16 11:25:36;;;;;;;0.30;0.20;;;;;;;9.24;72.30;100936.53;5047125;28;20509;-55
2021/03/16 11:28:02;;;;;;;0.30;0.20;;;;;;;9.04;73.72;100930.56;5046545;28;20466;-55
2021/03/16 11:30:31;;;;;;;0.30;0.20;;;;;;;9.07;73.62;100927.91;5034460;28;20484;-54
2021/03/16 11:32:57;;;;;;;0.30;0.20;;;;;;;9.26;73.73;100932.06;5046547;28;20458;-55
2021/03/16 11:35:24;;;;;;;0.30;0.20;;;;;;;9.23;73.37;100932.09;5039687;28;20464;-55
2021/03/16 11:37:50;;;;;;;0.30;0.20;;;;;;;9.50;72.11;100928.22;5049078;28;20474;-55
2021/03/16 11:40:16;;;;;;;0.30;0.13;;;;;;;9.54;71.33;100932.56;5040070;28;20936;-55